sensor_id;sensor_type;location;lat;lon;timestamp;P1;durP1;ratioP1;P2;durP2;ratioP2
13032;SDS011;6583;42.632;23.298;2022-12-18T00:01:14;8.50;;;7.60;;
13032;SDS011;6583;42.632;23.298;2022-12-18T00:03:42;6.37;;;5.73;;
13032;SDS011;6583;42.632;23.298;2022-12-18T00:06:09;16.47;;;12.97;;
13032;SDS011;6583;42.632;23.298;2022-12-18T00:08:36;9.20;;;8.30;;
13032;SDS011;6583;42.632;23.298;2022-12-18T00:11:03;9.97;;;8.97;;
13032;SDS011;6583;42.632;23.298;2022-12-18T00:13:32;11.90;;;10.70;;
13032;SDS011;6583;42.632;23.298;2022-12-18T00:16:01;14.87;;;13.13;;
13032;SDS011;6583;42.632;23.298;2022-12-18T00:18:28;9.97;;;8.97;;
13032;SDS011;6583;42.632;23.298;2022-12-18T00:20:57;9.53;;;8.53;;
13032;SDS011;6583;42.632;23.298;2022-12-18T00:23:25;12.27;;;9.97;;
13032;SDS011;6583;42.632;23.298;2022-12-18T00:25:51;12.40;;;10.00;;
13032;SDS011;6583;42.632;23.298;2022-12-18T00:28:18;11.53;;;10.20;;
13032;SDS011;6583;42.632;23.298;2022-12-18T00:30:46;10.17;;;8.97;;
13032;SDS011;6583;42.632;23.298;2022-12-18T00:33:16;9.97;;;8.93;;
13032;SDS011;6583;42.632;23.298;2022-12-18T00:35:43;8.30;;;7.47;;
13032;SDS011;6583;42.632;23.298;2022-12-18T00:38:09;9.40;;;8.50;;
13032;SDS011;6583;42.632;23.298;2022-12-18T00:40:36;8.70;;;7.80;;
13032;SDS011;6583;42.632;23.298;2022-12-18T00:43:03;14.13;;;12.23;;
13032;SDS011;6583;42.632;23.298;2022-12-18T00:45:29;13.33;;;11.93;;
13032;SDS011;6583;42.632;23.298;2022-12-18T00:47:58;9.20;;;8.30;;
13032;SDS011;6583;42.632;23.298;2022-12-18T00:50:25;12.07;;;9.27;;
13032;SDS011;6583;42.632;23.298;2022-12-18T00:52:52;8.03;;;6.93;;
13032;SDS011;6583;42.632;23.298;2022-12-18T00:55:18;9.33;;;7.90;;
13032;SDS011;6583;42.632;23.298;2022-12-18T00:57:45;8.17;;;6.67;;
13032;SDS011;6583;42.632;23.298;2022-12-18T01:00:13;21.27;;;13.80;;
13032;SDS011;6583;42.632;23.298;2022-12-18T01:02:41;24.23;;;15.50;;
13032;SDS011;6583;42.632;23.298;2022-12-18T01:05:10;13.30;;;9.77;;
13032;SDS011;6583;42.632;23.298;2022-12-18T01:07:38;15.03;;;10.73;;
13032;SDS011;6583;42.632;23.298;2022-12-18T01:10:05;10.50;;;7.77;;
13032;SDS011;6583;42.632;23.298;2022-12-18T01:12:32;9.97;;;8.00;;
13032;SDS011;6583;42.632;23.298;2022-12-18T01:14:59;11.43;;;8.57;;
13032;SDS011;6583;42.632;23.298;2022-12-18T01:17:26;9.63;;;7.63;;
13032;SDS011;6583;42.632;23.298;2022-12-18T01:19:52;9.73;;;8.23;;
13032;SDS011;6583;42.632;23.298;2022-12-18T01:22:20;9.07;;;7.73;;
13032;SDS011;6583;42.632;23.298;2022-12-18T01:24:47;11.73;;;8.57;;
13032;SDS011;6583;42.632;23.298;2022-12-18T01:27:14;10.00;;;7.40;;
13032;SDS011;6583;42.632;23.298;2022-12-18T01:29:40;10.80;;;7.93;;
13032;SDS011;6583;42.632;23.298;2022-12-18T01:32:07;9.40;;;7.50;;
13032;SDS011;6583;42.632;23.298;2022-12-18T01:34:34;10.33;;;8.03;;
13032;SDS011;6583;42.632;23.298;2022-12-18T01:37:02;10.37;;;9.00;;
13032;SDS011;6583;42.632;23.298;2022-12-18T01:39:30;10.83;;;9.13;;
13032;SDS011;6583;42.632;23.298;2022-12-18T01:41:58;12.13;;;9.60;;
13032;SDS011;6583;42.632;23.298;2022-12-18T01:47:29;12.30;;;9.60;;
13032;SDS011;6583;42.632;23.298;2022-12-18T01:50:00;11.13;;;8.73;;
13032;SDS011;6583;42.632;23.298;2022-12-18T01:52:31;11.30;;;8.93;;
13032;SDS011;6583;42.632;23.298;2022-12-18T01:55:00;10.67;;;9.00;;
13032;SDS011;6583;42.632;23.298;2022-12-18T01:57:31;11.77;;;9.37;;
13032;SDS011;6583;42.632;23.298;2022-12-18T01:59:59;11.40;;;9.53;;
13032;SDS011;6583;42.632;23.298;2022-12-18T02:02:29;11.37;;;8.93;;
13032;SDS011;6583;42.632;23.298;2022-12-18T02:04:56;11.57;;;8.87;;
13032;SDS011;6583;42.632;23.298;2022-12-18T02:07:24;11.67;;;8.83;;
13032;SDS011;6583;42.632;23.298;2022-12-18T02:09:59;12.03;;;9.60;;
13032;SDS011;6583;42.632;23.298;2022-12-18T02:12:30;12.00;;;9.40;;
13032;SDS011;6583;42.632;23.298;2022-12-18T02:15:06;11.87;;;9.50;;
13032;SDS011;6583;42.632;23.298;2022-12-18T02:17:42;12.83;;;10.17;;
13032;SDS011;6583;42.632;23.298;2022-12-18T02:20:16;14.00;;;9.33;;
13032;SDS011;6583;42.632;23.298;2022-12-18T02:22:55;13.90;;;9.93;;
13032;SDS011;6583;42.632;23.298;2022-12-18T02:25:42;12.53;;;10.03;;
13032;SDS011;6583;42.632;23.298;2022-12-18T02:28:34;10.87;;;8.27;;
13032;SDS011;6583;42.632;23.298;2022-12-18T02:31:04;9.27;;;7.93;;
13032;SDS011;6583;42.632;23.298;2022-12-18T02:33:36;8.93;;;7.93;;
13032;SDS011;6583;42.632;23.298;2022-12-18T02:36:05;10.67;;;8.73;;
13032;SDS011;6583;42.632;23.298;2022-12-18T02:38:34;9.80;;;7.43;;
13032;SDS011;6583;42.632;23.298;2022-12-18T02:41:03;10.23;;;7.67;;
13032;SDS011;6583;42.632;23.298;2022-12-18T02:43:31;9.10;;;7.43;;
13032;SDS011;6583;42.632;23.298;2022-12-18T02:45:58;8.90;;;7.00;;
13032;SDS011;6583;42.632;23.298;2022-12-18T02:48:27;9.83;;;7.27;;
13032;SDS011;6583;42.632;23.298;2022-12-18T02:50:58;8.47;;;7.13;;
13032;SDS011;6583;42.632;23.298;2022-12-18T02:53:31;7.93;;;6.70;;
13032;SDS011;6583;42.632;23.298;2022-12-18T02:56:05;10.20;;;7.70;;
13032;SDS011;6583;42.632;23.298;2022-12-18T02:58:37;9.43;;;7.50;;
13032;SDS011;6583;42.632;23.298;2022-12-18T03:01:11;9.20;;;7.30;;
13032;SDS011;6583;42.632;23.298;2022-12-18T03:03:43;9.70;;;7.63;;
13032;SDS011;6583;42.632;23.298;2022-12-18T03:06:17;9.87;;;7.73;;
13032;SDS011;6583;42.632;23.298;2022-12-18T03:08:48;10.17;;;8.10;;
13032;SDS011;6583;42.632;23.298;2022-12-18T03:11:21;8.03;;;7.10;;
13032;SDS011;6583;42.632;23.298;2022-12-18T03:14:08;9.13;;;7.13;;
13032;SDS011;6583;42.632;23.298;2022-12-18T03:16:36;8.07;;;7.20;;
13032;SDS011;6583;42.632;23.298;2022-12-18T03:19:04;10.13;;;7.50;;
13032;SDS011;6583;42.632;23.298;2022-12-18T03:21:39;9.30;;;7.47;;
13032;SDS011;6583;42.632;23.298;2022-12-18T03:24:09;9.80;;;7.10;;
13032;SDS011;6583;42.632;23.298;2022-12-18T03:26:40;8.37;;;6.67;;
13032;SDS011;6583;42.632;23.298;2022-12-18T03:29:11;7.77;;;6.17;;
13032;SDS011;6583;42.632;23.298;2022-12-18T03:31:41;6.90;;;5.30;;
13032;SDS011;6583;42.632;23.298;2022-12-18T03:34:12;5.80;;;4.70;;
13032;SDS011;6583;42.632;23.298;2022-12-18T03:36:42;6.70;;;5.00;;
13032;SDS011;6583;42.632;23.298;2022-12-18T03:39:09;5.53;;;4.50;;
13032;SDS011;6583;42.632;23.298;2022-12-18T03:41:38;5.40;;;3.90;;
13032;SDS011;6583;42.632;23.298;2022-12-18T03:44:11;5.53;;;4.10;;
13032;SDS011;6583;42.632;23.298;2022-12-18T03:46:41;5.23;;;4.10;;
13032;SDS011;6583;42.632;23.298;2022-12-18T03:49:14;5.97;;;4.37;;
13032;SDS011;6583;42.632;23.298;2022-12-18T03:51:50;5.40;;;4.27;;
13032;SDS011;6583;42.632;23.298;2022-12-18T03:54:21;4.90;;;4.03;;
13032;SDS011;6583;42.632;23.298;2022-12-18T03:56:52;5.77;;;4.30;;
13032;SDS011;6583;42.632;23.298;2022-12-18T03:59:25;4.50;;;3.93;;
13032;SDS011;6583;42.632;23.298;2022-12-18T04:01:55;5.60;;;4.40;;
13032;SDS011;6583;42.632;23.298;2022-12-18T04:04:23;5.37;;;3.73;;
13032;SDS011;6583;42.632;23.298;2022-12-18T04:06:53;6.63;;;4.30;;
13032;SDS011;6583;42.632;23.298;2022-12-18T04:09:21;6.00;;;4.17;;
13032;SDS011;6583;42.632;23.298;2022-12-18T04:11:48;4.90;;;3.87;;
13032;SDS011;6583;42.632;23.298;2022-12-18T04:14:16;6.33;;;4.40;;
13032;SDS011;6583;42.632;23.298;2022-12-18T04:16:42;5.83;;;4.17;;
13032;SDS011;6583;42.632;23.298;2022-12-18T04:19:09;6.00;;;4.07;;
13032;SDS011;6583;42.632;23.298;2022-12-18T04:21:36;4.57;;;4.03;;
13032;SDS011;6583;42.632;23.298;2022-12-18T04:24:02;5.43;;;4.63;;
13032;SDS011;6583;42.632;23.298;2022-12-18T04:26:30;6.23;;;4.60;;
13032;SDS011;6583;42.632;23.298;2022-12-18T04:28:56;6.83;;;5.40;;
13032;SDS011;6583;42.632;23.298;2022-12-18T04:31:24;7.17;;;4.87;;
13032;SDS011;6583;42.632;23.298;2022-12-18T04:33:51;6.30;;;5.03;;
13032;SDS011;6583;42.632;23.298;2022-12-18T04:36:18;6.50;;;4.93;;
13032;SDS011;6583;42.632;23.298;2022-12-18T04:38:44;6.77;;;4.67;;
13032;SDS011;6583;42.632;23.298;2022-12-18T04:41:12;6.00;;;4.57;;
13032;SDS011;6583;42.632;23.298;2022-12-18T04:43:39;7.03;;;5.13;;
13032;SDS011;6583;42.632;23.298;2022-12-18T04:46:06;5.57;;;4.50;;
13032;SDS011;6583;42.632;23.298;2022-12-18T04:48:35;6.67;;;5.37;;
13032;SDS011;6583;42.632;23.298;2022-12-18T04:51:03;6.57;;;4.90;;
13032;SDS011;6583;42.632;23.298;2022-12-18T04:53:30;6.13;;;5.13;;
13032;SDS011;6583;42.632;23.298;2022-12-18T04:56:04;7.33;;;5.33;;
13032;SDS011;6583;42.632;23.298;2022-12-18T04:58:31;6.17;;;4.87;;
13032;SDS011;6583;42.632;23.298;2022-12-18T05:00:58;6.93;;;5.17;;
13032;SDS011;6583;42.632;23.298;2022-12-18T05:03:25;6.77;;;5.13;;
13032;SDS011;6583;42.632;23.298;2022-12-18T05:05:53;9.13;;;5.63;;
13032;SDS011;6583;42.632;23.298;2022-12-18T05:08:19;8.47;;;5.90;;
13032;SDS011;6583;42.632;23.298;2022-12-18T05:10:46;7.87;;;5.93;;
13032;SDS011;6583;42.632;23.298;2022-12-18T05:13:13;7.60;;;5.53;;
13032;SDS011;6583;42.632;23.298;2022-12-18T05:15:39;7.53;;;5.60;;
13032;SDS011;6583;42.632;23.298;2022-12-18T05:18:07;8.27;;;5.63;;
13032;SDS011;6583;42.632;23.298;2022-12-18T05:20:34;7.77;;;4.90;;
13032;SDS011;6583;42.632;23.298;2022-12-18T05:23:02;8.30;;;6.07;;
13032;SDS011;6583;42.632;23.298;2022-12-18T05:25:29;8.23;;;5.67;;
13032;SDS011;6583;42.632;23.298;2022-12-18T05:27:56;6.93;;;5.23;;
13032;SDS011;6583;42.632;23.298;2022-12-18T05:30:22;7.20;;;5.50;;
13032;SDS011;6583;42.632;23.298;2022-12-18T05:32:49;8.40;;;5.77;;
13032;SDS011;6583;42.632;23.298;2022-12-18T05:35:15;9.00;;;5.57;;
13032;SDS011;6583;42.632;23.298;2022-12-18T05:37:42;7.93;;;5.87;;
13032;SDS011;6583;42.632;23.298;2022-12-18T05:40:11;8.27;;;6.07;;
13032;SDS011;6583;42.632;23.298;2022-12-18T05:42:38;8.67;;;6.30;;
13032;SDS011;6583;42.632;23.298;2022-12-18T05:45:05;7.53;;;5.87;;
13032;SDS011;6583;42.632;23.298;2022-12-18T05:47:32;9.03;;;6.50;;
13032;SDS011;6583;42.632;23.298;2022-12-18T05:49:59;8.07;;;5.77;;
13032;SDS011;6583;42.632;23.298;2022-12-18T05:52:26;7.20;;;5.57;;
13032;SDS011;6583;42.632;23.298;2022-12-18T05:54:52;7.80;;;6.23;;
13032;SDS011;6583;42.632;23.298;2022-12-18T05:57:20;13.50;;;7.23;;
13032;SDS011;6583;42.632;23.298;2022-12-18T05:59:47;9.30;;;6.70;;
13032;SDS011;6583;42.632;23.298;2022-12-18T06:02:14;11.30;;;7.87;;
13032;SDS011;6583;42.632;23.298;2022-12-18T06:04:40;10.07;;;7.43;;
13032;SDS011;6583;42.632;23.298;2022-12-18T06:07:07;11.37;;;8.00;;
13032;SDS011;6583;42.632;23.298;2022-12-18T06:09:33;12.30;;;7.67;;
13032;SDS011;6583;42.632;23.298;2022-12-18T06:12:00;10.87;;;7.23;;
13032;SDS011;6583;42.632;23.298;2022-12-18T06:14:28;12.87;;;7.80;;
13032;SDS011;6583;42.632;23.298;2022-12-18T06:16:55;17.63;;;8.33;;
13032;SDS011;6583;42.632;23.298;2022-12-18T06:19:21;11.43;;;6.97;;
13032;SDS011;6583;42.632;23.298;2022-12-18T06:21:48;15.40;;;7.93;;
13032;SDS011;6583;42.632;23.298;2022-12-18T06:24:15;20.90;;;8.83;;
13032;SDS011;6583;42.632;23.298;2022-12-18T06:26:42;10.20;;;7.03;;
13032;SDS011;6583;42.632;23.298;2022-12-18T06:29:09;20.30;;;8.10;;
13032;SDS011;6583;42.632;23.298;2022-12-18T06:31:37;8.83;;;5.80;;
13032;SDS011;6583;42.632;23.298;2022-12-18T06:34:03;9.77;;;6.13;;
13032;SDS011;6583;42.632;23.298;2022-12-18T06:36:31;12.43;;;6.93;;
13032;SDS011;6583;42.632;23.298;2022-12-18T06:38:58;8.67;;;6.27;;
13032;SDS011;6583;42.632;23.298;2022-12-18T06:41:25;9.20;;;6.40;;
13032;SDS011;6583;42.632;23.298;2022-12-18T06:43:51;11.33;;;6.47;;
13032;SDS011;6583;42.632;23.298;2022-12-18T06:46:18;10.20;;;6.13;;
13032;SDS011;6583;42.632;23.298;2022-12-18T06:48:47;11.07;;;6.23;;
13032;SDS011;6583;42.632;23.298;2022-12-18T06:51:16;8.70;;;6.20;;
13032;SDS011;6583;42.632;23.298;2022-12-18T06:53:44;17.23;;;7.80;;
13032;SDS011;6583;42.632;23.298;2022-12-18T06:56:11;9.07;;;6.27;;
13032;SDS011;6583;42.632;23.298;2022-12-18T06:58:37;10.30;;;6.97;;
13032;SDS011;6583;42.632;23.298;2022-12-18T07:01:05;9.53;;;6.90;;
13032;SDS011;6583;42.632;23.298;2022-12-18T07:03:34;8.93;;;6.27;;
13032;SDS011;6583;42.632;23.298;2022-12-18T07:06:02;8.07;;;6.17;;
13032;SDS011;6583;42.632;23.298;2022-12-18T07:08:29;8.47;;;6.40;;
13032;SDS011;6583;42.632;23.298;2022-12-18T07:10:56;10.47;;;7.57;;
13032;SDS011;6583;42.632;23.298;2022-12-18T07:13:23;9.67;;;7.00;;
13032;SDS011;6583;42.632;23.298;2022-12-18T07:15:50;8.17;;;5.93;;
13032;SDS011;6583;42.632;23.298;2022-12-18T07:18:16;11.70;;;7.17;;
13032;SDS011;6583;42.632;23.298;2022-12-18T07:20:43;10.60;;;6.10;;
13032;SDS011;6583;42.632;23.298;2022-12-18T07:23:11;8.13;;;6.23;;
13032;SDS011;6583;42.632;23.298;2022-12-18T07:25:37;8.67;;;6.53;;
13032;SDS011;6583;42.632;23.298;2022-12-18T07:28:04;9.30;;;6.30;;
13032;SDS011;6583;42.632;23.298;2022-12-18T07:30:31;9.77;;;6.10;;
13032;SDS011;6583;42.632;23.298;2022-12-18T07:32:58;9.00;;;6.73;;
13032;SDS011;6583;42.632;23.298;2022-12-18T07:35:25;8.67;;;6.60;;
13032;SDS011;6583;42.632;23.298;2022-12-18T07:37:51;9.03;;;6.57;;
13032;SDS011;6583;42.632;23.298;2022-12-18T07:40:19;9.67;;;6.73;;
13032;SDS011;6583;42.632;23.298;2022-12-18T07:42:46;8.20;;;6.27;;
13032;SDS011;6583;42.632;23.298;2022-12-18T07:45:12;9.93;;;6.70;;
13032;SDS011;6583;42.632;23.298;2022-12-18T07:47:39;10.37;;;6.80;;
13032;SDS011;6583;42.632;23.298;2022-12-18T07:50:07;8.50;;;6.00;;
13032;SDS011;6583;42.632;23.298;2022-12-18T07:52:34;9.90;;;6.97;;
13032;SDS011;6583;42.632;23.298;2022-12-18T07:55:01;10.60;;;7.33;;
13032;SDS011;6583;42.632;23.298;2022-12-18T07:57:29;10.17;;;6.73;;
13032;SDS011;6583;42.632;23.298;2022-12-18T07:59:56;10.10;;;6.87;;
13032;SDS011;6583;42.632;23.298;2022-12-18T08:02:22;12.70;;;7.50;;
13032;SDS011;6583;42.632;23.298;2022-12-18T08:04:49;8.40;;;5.97;;
13032;SDS011;6583;42.632;23.298;2022-12-18T08:07:16;10.70;;;7.20;;
13032;SDS011;6583;42.632;23.298;2022-12-18T08:09:43;12.47;;;7.10;;
13032;SDS011;6583;42.632;23.298;2022-12-18T08:12:09;10.90;;;7.40;;
13032;SDS011;6583;42.632;23.298;2022-12-18T08:14:37;13.47;;;8.50;;
13032;SDS011;6583;42.632;23.298;2022-12-18T08:17:04;12.57;;;8.10;;
13032;SDS011;6583;42.632;23.298;2022-12-18T08:19:31;13.63;;;8.63;;
13032;SDS011;6583;42.632;23.298;2022-12-18T08:21:58;12.27;;;8.73;;
13032;SDS011;6583;42.632;23.298;2022-12-18T08:24:24;11.80;;;8.30;;
13032;SDS011;6583;42.632;23.298;2022-12-18T08:26:51;12.90;;;8.40;;
13032;SDS011;6583;42.632;23.298;2022-12-18T08:29:18;12.67;;;8.63;;
13032;SDS011;6583;42.632;23.298;2022-12-18T08:31:46;10.73;;;8.17;;
13032;SDS011;6583;42.632;23.298;2022-12-18T08:34:13;10.87;;;7.33;;
13032;SDS011;6583;42.632;23.298;2022-12-18T08:36:39;12.27;;;7.87;;
13032;SDS011;6583;42.632;23.298;2022-12-18T08:39:06;11.40;;;8.27;;
13032;SDS011;6583;42.632;23.298;2022-12-18T08:41:33;13.33;;;8.30;;
13032;SDS011;6583;42.632;23.298;2022-12-18T08:43:59;11.77;;;7.77;;
13032;SDS011;6583;42.632;23.298;2022-12-18T08:46:44;13.73;;;9.70;;
13032;SDS011;6583;42.632;23.298;2022-12-18T08:49:12;14.77;;;9.63;;
13032;SDS011;6583;42.632;23.298;2022-12-18T08:51:39;13.00;;;8.63;;
13032;SDS011;6583;42.632;23.298;2022-12-18T08:54:06;12.13;;;8.67;;
13032;SDS011;6583;42.632;23.298;2022-12-18T08:56:33;15.30;;;9.50;;
13032;SDS011;6583;42.632;23.298;2022-12-18T08:59:00;17.60;;;11.63;;
13032;SDS011;6583;42.632;23.298;2022-12-18T09:01:26;17.73;;;12.37;;
13032;SDS011;6583;42.632;23.298;2022-12-18T09:03:53;18.13;;;12.60;;
13032;SDS011;6583;42.632;23.298;2022-12-18T09:06:21;20.67;;;13.80;;
13032;SDS011;6583;42.632;23.298;2022-12-18T09:08:49;22.13;;;14.63;;
13032;SDS011;6583;42.632;23.298;2022-12-18T09:11:19;23.27;;;15.83;;
13032;SDS011;6583;42.632;23.298;2022-12-18T09:13:47;25.43;;;16.53;;
13032;SDS011;6583;42.632;23.298;2022-12-18T09:16:14;24.30;;;16.37;;
13032;SDS011;6583;42.632;23.298;2022-12-18T09:18:41;27.83;;;17.67;;
13032;SDS011;6583;42.632;23.298;2022-12-18T09:21:09;27.50;;;17.27;;
13032;SDS011;6583;42.632;23.298;2022-12-18T09:23:37;27.27;;;17.43;;
13032;SDS011;6583;42.632;23.298;2022-12-18T09:26:04;28.63;;;16.53;;
13032;SDS011;6583;42.632;23.298;2022-12-18T09:28:31;28.13;;;17.77;;
13032;SDS011;6583;42.632;23.298;2022-12-18T09:30:58;29.97;;;18.70;;
13032;SDS011;6583;42.632;23.298;2022-12-18T09:33:24;28.17;;;18.10;;
13032;SDS011;6583;42.632;23.298;2022-12-18T09:35:51;29.87;;;18.63;;
13032;SDS011;6583;42.632;23.298;2022-12-18T09:38:18;31.03;;;19.13;;
13032;SDS011;6583;42.632;23.298;2022-12-18T09:40:47;26.80;;;17.10;;
13032;SDS011;6583;42.632;23.298;2022-12-18T09:43:16;30.47;;;19.23;;
13032;SDS011;6583;42.632;23.298;2022-12-18T09:45:47;27.73;;;17.07;;
13032;SDS011;6583;42.632;23.298;2022-12-18T09:48:20;28.07;;;18.43;;
13032;SDS011;6583;42.632;23.298;2022-12-18T09:50:51;28.60;;;18.40;;
13032;SDS011;6583;42.632;23.298;2022-12-18T09:53:22;28.03;;;18.97;;
13032;SDS011;6583;42.632;23.298;2022-12-18T09:55:55;27.60;;;18.40;;
13032;SDS011;6583;42.632;23.298;2022-12-18T09:58:24;28.13;;;16.70;;
13032;SDS011;6583;42.632;23.298;2022-12-18T10:00:54;24.93;;;15.80;;
13032;SDS011;6583;42.632;23.298;2022-12-18T10:03:21;24.93;;;16.10;;
13032;SDS011;6583;42.632;23.298;2022-12-18T10:05:51;23.30;;;15.13;;
13032;SDS011;6583;42.632;23.298;2022-12-18T10:08:29;27.27;;;15.73;;
13032;SDS011;6583;42.632;23.298;2022-12-18T10:11:09;22.17;;;14.93;;
13032;SDS011;6583;42.632;23.298;2022-12-18T10:13:55;24.63;;;15.60;;
13032;SDS011;6583;42.632;23.298;2022-12-18T10:16:32;25.03;;;15.47;;
13032;SDS011;6583;42.632;23.298;2022-12-18T10:19:08;24.10;;;15.80;;
13032;SDS011;6583;42.632;23.298;2022-12-18T10:21:45;26.53;;;16.10;;
13032;SDS011;6583;42.632;23.298;2022-12-18T10:24:18;26.17;;;16.53;;
13032;SDS011;6583;42.632;23.298;2022-12-18T10:26:54;25.07;;;16.13;;
13032;SDS011;6583;42.632;23.298;2022-12-18T10:29:26;24.67;;;14.87;;
13032;SDS011;6583;42.632;23.298;2022-12-18T10:31:53;24.90;;;16.27;;
13032;SDS011;6583;42.632;23.298;2022-12-18T10:34:20;27.00;;;16.73;;
13032;SDS011;6583;42.632;23.298;2022-12-18T10:36:47;25.43;;;15.90;;
13032;SDS011;6583;42.632;23.298;2022-12-18T10:39:15;26.20;;;16.10;;
13032;SDS011;6583;42.632;23.298;2022-12-18T10:41:43;26.53;;;17.07;;
13032;SDS011;6583;42.632;23.298;2022-12-18T10:44:12;27.53;;;16.90;;
13032;SDS011;6583;42.632;23.298;2022-12-18T10:46:43;29.17;;;17.93;;
13032;SDS011;6583;42.632;23.298;2022-12-18T10:49:18;24.43;;;15.33;;
13032;SDS011;6583;42.632;23.298;2022-12-18T10:51:47;26.47;;;16.17;;
13032;SDS011;6583;42.632;23.298;2022-12-18T10:54:15;25.53;;;15.73;;
13032;SDS011;6583;42.632;23.298;2022-12-18T10:56:44;26.43;;;15.47;;
13032;SDS011;6583;42.632;23.298;2022-12-18T10:59:13;22.80;;;14.53;;
13032;SDS011;6583;42.632;23.298;2022-12-18T11:01:48;23.33;;;13.37;;
13032;SDS011;6583;42.632;23.298;2022-12-18T11:04:18;22.50;;;14.80;;
13032;SDS011;6583;42.632;23.298;2022-12-18T11:09:36;19.57;;;12.40;;
13032;SDS011;6583;42.632;23.298;2022-12-18T11:12:05;19.23;;;12.97;;
13032;SDS011;6583;42.632;23.298;2022-12-18T11:14:43;17.60;;;11.63;;
13032;SDS011;6583;42.632;23.298;2022-12-18T11:17:17;19.77;;;12.80;;
13032;SDS011;6583;42.632;23.298;2022-12-18T11:19:45;22.07;;;11.80;;
13032;SDS011;6583;42.632;23.298;2022-12-18T11:22:19;19.17;;;11.03;;
13032;SDS011;6583;42.632;23.298;2022-12-18T11:24:52;15.20;;;9.87;;
13032;SDS011;6583;42.632;23.298;2022-12-18T11:27:22;13.57;;;9.27;;
13032;SDS011;6583;42.632;23.298;2022-12-18T11:29:50;15.93;;;9.30;;
13032;SDS011;6583;42.632;23.298;2022-12-18T11:32:21;16.77;;;9.73;;
13032;SDS011;6583;42.632;23.298;2022-12-18T11:34:55;16.13;;;9.97;;
13032;SDS011;6583;42.632;23.298;2022-12-18T11:37:26;16.67;;;9.27;;
13032;SDS011;6583;42.632;23.298;2022-12-18T11:39:54;14.27;;;8.73;;
13032;SDS011;6583;42.632;23.298;2022-12-18T11:42:25;14.13;;;8.00;;
13032;SDS011;6583;42.632;23.298;2022-12-18T11:45:03;13.63;;;8.37;;
13032;SDS011;6583;42.632;23.298;2022-12-18T11:47:45;13.63;;;8.03;;
13032;SDS011;6583;42.632;23.298;2022-12-18T11:50:19;13.67;;;8.40;;
13032;SDS011;6583;42.632;23.298;2022-12-18T11:52:49;14.40;;;8.40;;
13032;SDS011;6583;42.632;23.298;2022-12-18T11:55:19;12.07;;;7.53;;
13032;SDS011;6583;42.632;23.298;2022-12-18T11:57:58;14.77;;;9.10;;
13032;SDS011;6583;42.632;23.298;2022-12-18T12:00:35;11.80;;;8.20;;
13032;SDS011;6583;42.632;23.298;2022-12-18T12:03:11;13.03;;;8.07;;
13032;SDS011;6583;42.632;23.298;2022-12-18T12:05:56;12.80;;;8.70;;
13032;SDS011;6583;42.632;23.298;2022-12-18T12:08:31;14.53;;;8.40;;
13032;SDS011;6583;42.632;23.298;2022-12-18T12:11:10;17.33;;;9.67;;
13032;SDS011;6583;42.632;23.298;2022-12-18T12:13:54;16.73;;;9.67;;
13032;SDS011;6583;42.632;23.298;2022-12-18T12:16:35;14.60;;;9.27;;
13032;SDS011;6583;42.632;23.298;2022-12-18T12:19:12;16.43;;;9.93;;
13032;SDS011;6583;42.632;23.298;2022-12-18T12:21:58;13.90;;;9.53;;
13032;SDS011;6583;42.632;23.298;2022-12-18T12:24:33;13.50;;;9.17;;
13032;SDS011;6583;42.632;23.298;2022-12-18T12:27:13;14.77;;;9.93;;
13032;SDS011;6583;42.632;23.298;2022-12-18T12:29:46;14.20;;;9.73;;
13032;SDS011;6583;42.632;23.298;2022-12-18T12:32:28;15.10;;;9.60;;
13032;SDS011;6583;42.632;23.298;2022-12-18T12:35:12;16.67;;;10.63;;
13032;SDS011;6583;42.632;23.298;2022-12-18T12:37:51;17.77;;;11.13;;
13032;SDS011;6583;42.632;23.298;2022-12-18T12:40:31;18.60;;;11.50;;
13032;SDS011;6583;42.632;23.298;2022-12-18T12:43:01;23.67;;;14.77;;
13032;SDS011;6583;42.632;23.298;2022-12-18T12:45:40;17.13;;;11.20;;
13032;SDS011;6583;42.632;23.298;2022-12-18T12:48:15;17.40;;;11.70;;
13032;SDS011;6583;42.632;23.298;2022-12-18T12:50:48;17.40;;;11.73;;
13032;SDS011;6583;42.632;23.298;2022-12-18T12:53:22;19.03;;;11.27;;
13032;SDS011;6583;42.632;23.298;2022-12-18T12:55:52;17.80;;;11.17;;
13032;SDS011;6583;42.632;23.298;2022-12-18T12:58:23;16.67;;;11.47;;
13032;SDS011;6583;42.632;23.298;2022-12-18T13:01:00;17.47;;;11.47;;
13032;SDS011;6583;42.632;23.298;2022-12-18T13:03:41;18.27;;;11.03;;
13032;SDS011;6583;42.632;23.298;2022-12-18T13:06:16;17.53;;;11.10;;
13032;SDS011;6583;42.632;23.298;2022-12-18T13:08:53;20.20;;;12.00;;
13032;SDS011;6583;42.632;23.298;2022-12-18T13:11:32;22.03;;;12.73;;
13032;SDS011;6583;42.632;23.298;2022-12-18T13:14:20;22.10;;;13.03;;
13032;SDS011;6583;42.632;23.298;2022-12-18T13:16:49;18.73;;;12.37;;
13032;SDS011;6583;42.632;23.298;2022-12-18T13:19:23;19.97;;;12.03;;
13032;SDS011;6583;42.632;23.298;2022-12-18T13:21:52;22.43;;;12.70;;
13032;SDS011;6583;42.632;23.298;2022-12-18T13:24:23;21.40;;;12.63;;
13032;SDS011;6583;42.632;23.298;2022-12-18T13:26:51;25.10;;;13.83;;
13032;SDS011;6583;42.632;23.298;2022-12-18T13:32:18;26.97;;;14.77;;
13032;SDS011;6583;42.632;23.298;2022-12-18T13:34:48;23.50;;;13.47;;
13032;SDS011;6583;42.632;23.298;2022-12-18T13:37:39;20.13;;;13.33;;
13032;SDS011;6583;42.632;23.298;2022-12-18T13:43:29;20.97;;;13.00;;
13032;SDS011;6583;42.632;23.298;2022-12-18T13:45:59;21.00;;;13.13;;
13032;SDS011;6583;42.632;23.298;2022-12-18T13:48:30;22.63;;;13.37;;
13032;SDS011;6583;42.632;23.298;2022-12-18T13:51:01;19.33;;;12.90;;
13032;SDS011;6583;42.632;23.298;2022-12-18T13:53:33;27.50;;;14.17;;
13032;SDS011;6583;42.632;23.298;2022-12-18T13:56:04;20.27;;;13.20;;
13032;SDS011;6583;42.632;23.298;2022-12-18T13:58:31;24.93;;;13.63;;
13032;SDS011;6583;42.632;23.298;2022-12-18T14:00:59;20.27;;;13.30;;
13032;SDS011;6583;42.632;23.298;2022-12-18T14:03:29;21.63;;;14.20;;
13032;SDS011;6583;42.632;23.298;2022-12-18T14:05:58;22.50;;;14.10;;
13032;SDS011;6583;42.632;23.298;2022-12-18T14:08:33;20.87;;;14.20;;
13032;SDS011;6583;42.632;23.298;2022-12-18T14:11:04;23.43;;;15.03;;
13032;SDS011;6583;42.632;23.298;2022-12-18T14:13:33;22.47;;;14.93;;
13032;SDS011;6583;42.632;23.298;2022-12-18T14:16:04;21.53;;;14.10;;
13032;SDS011;6583;42.632;23.298;2022-12-18T14:18:34;25.40;;;14.53;;
13032;SDS011;6583;42.632;23.298;2022-12-18T14:21:14;22.67;;;14.50;;
13032;SDS011;6583;42.632;23.298;2022-12-18T14:23:44;24.97;;;14.70;;
13032;SDS011;6583;42.632;23.298;2022-12-18T14:26:21;23.57;;;14.60;;
13032;SDS011;6583;42.632;23.298;2022-12-18T14:28:52;21.93;;;14.47;;
13032;SDS011;6583;42.632;23.298;2022-12-18T14:31:19;20.73;;;14.10;;
13032;SDS011;6583;42.632;23.298;2022-12-18T14:33:48;23.87;;;14.23;;
13032;SDS011;6583;42.632;23.298;2022-12-18T14:36:17;22.93;;;14.47;;
13032;SDS011;6583;42.632;23.298;2022-12-18T14:38:47;19.80;;;13.90;;
13032;SDS011;6583;42.632;23.298;2022-12-18T14:41:16;20.97;;;13.40;;
13032;SDS011;6583;42.632;23.298;2022-12-18T14:43:44;23.30;;;14.63;;
13032;SDS011;6583;42.632;23.298;2022-12-18T14:46:29;20.50;;;14.37;;
13032;SDS011;6583;42.632;23.298;2022-12-18T14:48:59;21.57;;;14.50;;
13032;SDS011;6583;42.632;23.298;2022-12-18T14:51:32;22.37;;;14.77;;
13032;SDS011;6583;42.632;23.298;2022-12-18T14:54:00;22.27;;;15.10;;
13032;SDS011;6583;42.632;23.298;2022-12-18T14:56:29;22.77;;;14.73;;
13032;SDS011;6583;42.632;23.298;2022-12-18T14:58:58;21.83;;;14.70;;
13032;SDS011;6583;42.632;23.298;2022-12-18T15:01:27;21.30;;;14.03;;